Time;durP1;ratioP1;P1;durP2;ratioP2;P2;SDS_P1;SDS_P2;PMS_P1;PMS_P2;Temp;Humidity;BMP_temperature;BMP_pressure;BME280_temperature;BME280_humidity;BME280_pressure;Samples;Min_cycle;Max_cycle;Signal;HPM_P1;HPM_P2
2023/06/04 00:01:57;;;;;;;14.67;7.27;;;17.20;66.30;;;;;;5007525;28;20659;-72
2023/06/04 00:04:26;;;;;;;14.17;7.63;;;17.20;66.30;;;;;;5005106;28;20214;-73
2023/06/04 00:06:51;;;;;;;13.53;7.83;;;17.10;66.40;;;;;;5005544;28;20202;-73
2023/06/04 00:09:18;;;;;;;11.87;7.17;;;17.10;66.60;;;;;;4996467;28;21083;-73
2023/06/04 00:11:45;;;;;;;11.33;7.50;;;17.10;66.70;;;;;;5003055;28;20194;-73
2023/06/04 00:14:11;;;;;;;14.47;8.30;;;17.10;66.70;;;;;;5011559;28;21119;-73
2023/06/04 00:16:37;;;;;;;11.60;7.90;;;17.00;66.70;;;;;;5010958;28;20431;-72
2023/06/04 00:19:02;;;;;;;12.00;7.80;;;17.00;67.00;;;;;;5011450;28;20416;-72
2023/06/04 00:21:28;;;;;;;10.60;6.83;;;17.00;67.20;;;;;;5004814;28;20276;-72
2023/06/04 00:23:54;;;;;;;13.47;7.40;;;17.00;67.20;;;;;;5010712;28;20388;-73
2023/06/04 00:26:20;;;;;;;13.10;8.40;;;16.90;67.20;;;;;;5008024;28;20193;-70
2023/06/04 00:28:45;;;;;;;12.30;8.00;;;16.90;67.30;;;;;;5011697;28;20216;-73
2023/06/04 00:31:12;;;;;;;14.40;7.20;;;16.90;67.30;;;;;;5003260;28;20496;-71
2023/06/04 00:33:38;;;;;;;11.43;6.80;;;16.80;67.20;;;;;;5008657;28;20273;-74
2023/06/04 00:36:04;;;;;;;11.73;6.80;;;16.70;67.30;;;;;;5006932;28;20474;-74
2023/06/04 00:38:30;;;;;;;12.67;7.33;;;16.70;67.50;;;;;;5007526;28;20464;-73
2023/06/04 00:40:55;;;;;;;13.37;7.03;;;16.70;67.50;;;;;;4998658;28;20705;-72
2023/06/04 00:43:25;;;;;;;12.47;7.00;;;16.60;67.60;;;;;;5006603;28;20216;-71
2023/06/04 00:45:51;;;;;;;11.60;6.70;;;16.60;67.60;;;;;;5008239;28;20891;-72
2023/06/04 00:48:17;;;;;;;13.47;6.23;;;16.60;67.50;;;;;;5008832;28;20425;-72
2023/06/04 00:50:43;;;;;;;12.27;6.90;;;16.50;67.50;;;;;;4994871;28;20480;-72
2023/06/04 00:53:10;;;;;;;11.70;7.10;;;16.50;67.60;;;;;;5008322;28;20215;-73
2023/06/04 00:55:36;;;;;;;10.30;6.17;;;16.50;67.50;;;;;;5010110;28;20240;-72
2023/06/04 00:58:04;;;;;;;9.70;6.30;;;16.50;67.60;;;;;;5010736;28;20849;-72
2023/06/04 01:00:30;;;;;;;13.40;6.90;;;16.50;67.50;;;;;;5007381;28;20316;-72
2023/06/04 01:03:02;;;;;;;11.50;6.40;;;16.50;67.30;;;;;;5010425;28;20432;-71
2023/06/04 01:05:43;;;;;;;10.53;6.77;;;16.40;67.50;;;;;;5009632;28;20435;-72
2023/06/04 01:08:09;;;;;;;11.37;7.30;;;16.30;67.70;;;;;;5006814;28;20901;-73
2023/06/04 01:10:36;;;;;;;10.97;6.87;;;16.20;68.00;;;;;;5007747;28;20477;-72
2023/06/04 01:13:01;;;;;;;15.33;7.60;;;16.10;68.30;;;;;;5011517;28;20508;-74
2023/06/04 01:15:27;;;;;;;11.30;7.27;;;16.10;68.60;;;;;;5010097;28;20512;-72
2023/06/04 01:18:03;;;;;;;13.60;8.10;;;16.00;68.90;;;;;;5010843;28;20653;-70
2023/06/04 01:20:40;;;;;;;14.20;7.57;;;16.00;69.10;;;;;;5009257;28;20514;-73
2023/06/04 01:23:42;;;;;;;12.13;6.67;;;16.00;69.10;;;;;;5014328;28;20483;-71
2023/06/04 01:26:10;;;;;;;12.53;7.00;;;16.00;69.10;;;;;;5010107;28;20505;-72
2023/06/04 01:28:37;;;;;;;10.00;6.87;;;16.00;69.10;;;;;;5010814;28;20433;-71
2023/06/04 01:31:07;;;;;;;14.60;7.80;;;16.00;69.20;;;;;;5013997;28;21282;-71
2023/06/04 01:33:33;;;;;;;14.33;6.83;;;16.00;69.20;;;;;;5016879;28;20421;-72
2023/06/04 01:35:58;;;;;;;12.87;6.87;;;15.90;69.20;;;;;;5014596;28;20427;-73
2023/06/04 01:38:24;;;;;;;10.30;6.70;;;15.90;69.40;;;;;;5014408;28;20276;-72
2023/06/04 01:40:50;;;;;;;13.50;7.00;;;15.90;69.40;;;;;;5001097;28;20217;-70
2023/06/04 01:43:16;;;;;;;11.33;7.30;;;15.80;69.50;;;;;;5007194;28;20205;-73
2023/06/04 01:45:42;;;;;;;11.17;6.73;;;15.70;69.50;;;;;;5005847;28;20801;-75
2023/06/04 01:48:07;;;;;;;12.80;7.30;;;15.70;69.50;;;;;;5012917;28;20190;-72
2023/06/04 01:50:33;;;;;;;11.73;7.17;;;15.70;69.50;;;;;;5007243;28;20227;-71
2023/06/04 01:52:59;;;;;;;10.13;6.87;;;15.60;69.40;;;;;;5017740;28;20217;-72
2023/06/04 01:55:25;;;;;;;12.17;6.90;;;15.60;69.40;;;;;;5016330;28;20193;-73
2023/06/04 01:57:51;;;;;;;12.07;6.33;;;15.60;69.20;;;;;;5019136;28;20442;-73
2023/06/04 02:00:17;;;;;;;13.90;7.30;;;15.60;69.10;;;;;;5017501;28;20491;-73
2023/06/04 02:02:50;;;;;;;8.87;5.77;;;15.60;69.10;;;;;;5017569;28;20187;-72
2023/06/04 02:05:16;;;;;;;8.13;5.90;;;15.60;69.10;;;;;;5011793;28;20474;-72
2023/06/04 02:07:44;;;;;;;10.50;6.07;;;15.50;68.80;;;;;;5013840;28;20435;-74
2023/06/04 02:10:20;;;;;;;13.37;6.77;;;15.60;68.50;;;;;;5009464;28;20639;-74
2023/06/04 02:12:59;;;;;;;11.70;5.63;;;15.50;68.50;;;;;;5010794;28;20424;-74
2023/06/04 02:15:26;;;;;;;12.40;5.97;;;15.50;68.20;;;;;;5004254;28;20995;-73
2023/06/04 02:17:58;;;;;;;10.77;5.70;;;15.50;68.20;;;;;;5007888;28;20794;-73
2023/06/04 02:20:27;;;;;;;11.13;5.47;;;15.40;68.20;;;;;;5002542;28;20464;-74
2023/06/04 02:22:54;;;;;;;10.80;6.10;;;15.40;68.30;;;;;;5006926;28;20416;-72
2023/06/04 02:25:20;;;;;;;12.00;6.40;;;15.40;68.50;;;;;;5006013;28;20923;-72
2023/06/04 02:27:45;;;;;;;11.87;5.60;;;15.40;68.50;;;;;;5013005;28;20439;-72
2023/06/04 02:30:11;;;;;;;8.30;5.60;;;15.30;68.50;;;;;;5006695;28;20221;-72
2023/06/04 02:32:37;;;;;;;8.70;5.27;;;15.30;68.60;;;;;;5010310;28;20191;-73
2023/06/04 02:35:03;;;;;;;10.40;6.00;;;15.30;68.60;;;;;;5006977;28;20643;-71
2023/06/04 02:37:30;;;;;;;10.83;5.90;;;15.30;68.50;;;;;;5012251;28;20206;-72
2023/06/04 02:39:55;;;;;;;10.10;6.13;;;15.30;68.50;;;;;;5007847;28;21019;-72
2023/06/04 02:42:21;;;;;;;9.60;5.60;;;15.20;68.50;;;;;;5010492;28;20433;-72
2023/06/04 02:44:47;;;;;;;7.47;4.70;;;15.10;68.50;;;;;;5004311;28;20215;-72
2023/06/04 02:47:12;;;;;;;9.90;5.30;;;15.10;68.50;;;;;;5007454;28;20178;-73
2023/06/04 02:49:38;;;;;;;9.40;5.33;;;15.10;68.50;;;;;;5002709;28;20203;-71
2023/06/04 02:52:03;;;;;;;7.33;4.90;;;15.10;68.20;;;;;;5006797;28;20287;-71
2023/06/04 02:54:29;;;;;;;10.43;5.47;;;15.10;68.00;;;;;;5009955;28;20235;-72
2023/06/04 02:56:55;;;;;;;12.47;5.23;;;15.00;68.00;;;;;;5009085;28;20677;-73
2023/06/04 02:59:21;;;;;;;7.23;4.97;;;15.00;67.90;;;;;;5009757;28;20213;-72
2023/06/04 03:01:46;;;;;;;7.70;4.57;;;14.90;68.00;;;;;;5007717;28;20423;-72
2023/06/04 03:04:15;;;;;;;9.47;5.20;;;14.90;68.20;;;;;;5012879;28;20207;-71
2023/06/04 03:06:44;;;;;;;7.97;4.07;;;14.90;68.30;;;;;;5003105;28;20658;-73
2023/06/04 03:09:10;;;;;;;7.10;4.70;;;14.80;68.50;;;;;;5010023;28;20455;-72
2023/06/04 03:11:36;;;;;;;7.37;4.17;;;14.80;68.60;;;;;;5003860;28;20932;-72
2023/06/04 03:14:02;;;;;;;9.00;4.73;;;14.70;68.60;;;;;;5011394;28;20432;-72
2023/06/04 03:16:27;;;;;;;11.67;4.70;;;14.80;68.80;;;;;;5008206;28;20191;-70
2023/06/04 03:18:53;;;;;;;9.00;5.00;;;14.80;68.80;;;;;;5008978;28;20214;-72
2023/06/04 03:21:18;;;;;;;11.30;5.80;;;14.80;68.90;;;;;;5008403;28;20224;-72
2023/06/04 03:23:44;;;;;;;10.53;4.93;;;14.70;68.80;;;;;;5012660;28;20306;-71
2023/06/04 03:26:12;;;;;;;8.37;5.03;;;14.70;68.60;;;;;;5007653;28;20175;-71
2023/06/04 03:28:38;;;;;;;8.80;4.70;;;14.70;68.50;;;;;;5015836;28;20251;-72
2023/06/04 03:31:03;;;;;;;10.07;5.47;;;14.70;68.60;;;;;;5010000;28;20460;-72
2023/06/04 03:33:29;;;;;;;10.30;5.53;;;14.60;69.10;;;;;;5014796;28;20225;-71
2023/06/04 03:35:58;;;;;;;6.27;5.23;;;14.60;69.50;;;;;;5008491;28;20276;-71
2023/06/04 03:38:25;;;;;;;9.53;5.27;;;14.60;69.80;;;;;;5009639;28;20191;-73
2023/06/04 03:40:52;;;;;;;8.57;6.03;;;14.60;69.90;;;;;;5007390;28;20472;-73
2023/06/04 03:43:18;;;;;;;10.10;5.53;;;14.60;70.20;;;;;;5011702;28;20550;-74
2023/06/04 03:45:44;;;;;;;9.70;5.90;;;14.60;70.40;;;;;;5004539;28;20451;-72
2023/06/04 03:48:09;;;;;;;13.33;4.80;;;14.70;70.40;;;;;;5010020;28;20425;-72
2023/06/04 03:50:35;;;;;;;10.50;5.90;;;14.60;70.40;;;;;;5021700;28;20226;-73
2023/06/04 03:53:01;;;;;;;11.93;5.83;;;14.60;70.50;;;;;;5008121;28;20182;-74
2023/06/04 03:55:26;;;;;;;7.50;4.60;;;14.60;70.40;;;;;;5006750;28;20630;-71
2023/06/04 03:57:52;;;;;;;12.10;5.60;;;14.60;70.40;;;;;;5008584;28;20178;-71
2023/06/04 04:00:20;;;;;;;7.60;5.33;;;14.70;70.40;;;;;;5004164;28;20228;-73
2023/06/04 04:02:45;;;;;;;10.83;5.50;;;14.70;70.20;;;;;;5011266;28;20200;-75
2023/06/04 04:05:11;;;;;;;9.00;5.60;;;14.70;70.20;;;;;;5003629;28;20469;-72
2023/06/04 04:07:37;;;;;;;7.83;5.30;;;14.70;70.10;;;;;;5010558;28;20644;-71
2023/06/04 04:10:04;;;;;;;9.90;5.60;;;14.60;70.40;;;;;;5003075;28;20209;-72
2023/06/04 04:12:30;;;;;;;7.73;5.73;;;14.60;70.40;;;;;;5011139;28;20268;-73
2023/06/04 04:14:56;;;;;;;8.00;5.00;;;14.60;70.40;;;;;;5005271;28;20502;-72
2023/06/04 04:17:22;;;;;;;10.20;5.67;;;14.70;70.40;;;;;;5010388;28;20194;-71
2023/06/04 04:19:47;;;;;;;6.87;4.60;;;14.60;69.70;;;;;;5004721;28;20484;-72
2023/06/04 04:22:17;;;;;;;8.60;5.20;;;14.60;69.40;;;;;;5008781;28;20182;-71
2023/06/04 04:24:43;;;;;;;6.90;4.70;;;14.70;69.40;;;;;;5008681;28;20590;-71
2023/06/04 04:27:10;;;;;;;8.40;4.80;;;14.70;69.70;;;;;;5010309;28;20424;-72
2023/06/04 04:29:36;;;;;;;9.53;5.33;;;14.80;69.50;;;;;;5003160;28;20465;-71
2023/06/04 04:32:11;;;;;;;8.10;3.70;;;14.80;69.10;;;;;;5008968;28;20453;-72
2023/06/04 04:34:42;;;;;;;8.90;4.10;;;14.90;68.50;;;;;;5009791;28;20422;-72
2023/06/04 04:37:09;;;;;;;7.60;4.37;;;14.90;67.90;;;;;;5006378;28;20440;-72
2023/06/04 04:39:35;;;;;;;6.13;3.70;;;15.10;66.70;;;;;;5007495;28;20470;-71
2023/06/04 04:42:02;;;;;;;6.13;4.17;;;15.20;66.40;;;;;;5011704;28;20429;-76
2023/06/04 04:44:27;;;;;;;8.93;4.37;;;15.30;65.70;;;;;;5012481;28;20480;-73
2023/06/04 04:46:53;;;;;;;6.13;4.10;;;15.30;66.00;;;;;;5010451;28;20918;-73
2023/06/04 04:49:18;;;;;;;9.43;4.70;;;15.30;64.70;;;;;;5008862;28;20201;-72
2023/06/04 04:51:44;;;;;;;7.10;4.10;;;15.10;64.80;;;;;;4973517;28;1095560;-73
2023/06/04 04:54:09;;;;;;;7.20;4.47;;;15.20;65.00;;;;;;5014424;28;20190;-72
2023/06/04 04:56:35;;;;;;;7.73;4.37;;;15.20;65.00;;;;;;5008845;28;20240;-72
2023/06/04 04:59:01;;;;;;;5.90;3.90;;;15.30;65.00;;;;;;5009882;28;20249;-72
2023/06/04 05:01:27;;;;;;;8.63;4.80;;;15.30;64.40;;;;;;5012072;28;20221;-72
2023/06/04 05:03:53;;;;;;;6.70;4.10;;;15.10;65.10;;;;;;5014439;28;20509;-73
2023/06/04 05:06:18;;;;;;;6.80;3.60;;;15.20;65.30;;;;;;5013557;28;20206;-71
2023/06/04 05:08:44;;;;;;;10.73;4.10;;;15.30;64.80;;;;;;5014938;28;20221;-72
2023/06/04 05:11:10;;;;;;;9.23;4.43;;;15.40;64.40;;;;;;5014724;28;20202;-72
2023/06/04 05:13:36;;;;;;;8.73;4.17;;;15.30;64.40;;;;;;5013783;28;20209;-74
2023/06/04 05:16:06;;;;;;;11.80;5.67;;;15.40;64.40;;;;;;5015541;28;20242;-72
2023/06/04 05:18:40;;;;;;;8.37;4.47;;;15.40;63.70;;;;;;5011726;28;20439;-73
2023/06/04 05:21:06;;;;;;;6.03;3.57;;;15.50;64.20;;;;;;5018185;28;20499;-71
2023/06/04 05:23:36;;;;;;;5.53;3.70;;;15.70;62.00;;;;;;5010973;28;20499;-71
2023/06/04 05:26:03;;;;;;;7.10;3.80;;;15.80;61.90;;;;;;5009412;28;20434;-71
2023/06/04 05:28:29;;;;;;;5.20;3.40;;;15.90;61.90;;;;;;5010200;28;20440;-72
2023/06/04 05:30:58;;;;;;;6.50;3.77;;;15.90;62.00;;;;;;5007120;28;20471;-72
2023/06/04 05:33:25;;;;;;;5.70;3.20;;;16.00;61.90;;;;;;5007772;28;20428;-72
2023/06/04 05:35:57;;;;;;;7.30;3.60;;;16.10;60.30;;;;;;5009410;28;20502;-72
2023/06/04 05:38:26;;;;;;;5.50;3.20;;;16.10;60.70;;;;;;5004592;28;20424;-73
2023/06/04 05:40:54;;;;;;;7.30;3.40;;;16.20;60.00;;;;;;5002791;28;20464;-71
2023/06/04 05:43:21;;;;;;;7.17;3.60;;;16.30;59.20;;;;;;5009217;28;20478;-72
2023/06/04 05:45:46;;;;;;;6.27;4.00;;;16.30;59.20;;;;;;5008053;28;21077;-72
2023/06/04 05:48:12;;;;;;;6.40;3.67;;;16.30;59.70;;;;;;5009042;28;20417;-72
2023/06/04 05:50:38;;;;;;;5.70;3.40;;;16.40;59.70;;;;;;5001449;28;20275;-72
2023/06/04 05:53:03;;;;;;;6.13;3.80;;;16.40;59.50;;;;;;5007958;28;20181;-71
2023/06/04 05:55:29;;;;;;;5.33;3.67;;;16.20;59.70;;;;;;5009186;28;20181;-73
2023/06/04 05:57:55;;;;;;;5.77;3.70;;;16.10;60.60;;;;;;5010292;28;20242;-73
2023/06/04 06:00:22;;;;;;;8.03;3.60;;;16.10;60.90;;;;;;5004744;28;20616;-73
2023/06/04 06:02:52;;;;;;;8.03;3.83;;;16.00;61.30;;;;;;5010132;28;20559;-73
2023/06/04 06:05:18;;;;;;;10.67;3.47;;;16.10;61.20;;;;;;5008099;28;20467;-73
2023/06/04 06:07:45;;;;;;;7.57;3.67;;;16.20;60.00;;;;;;5009549;28;20420;-73
2023/06/04 06:10:10;;;;;;;7.90;4.03;;;16.30;60.00;;;;;;5002722;28;20998;-73
2023/06/04 06:12:36;;;;;;;6.20;3.90;;;16.40;60.30;;;;;;5010467;28;20424;-73
2023/06/04 06:15:02;;;;;;;9.73;3.47;;;16.40;60.30;;;;;;5012208;28;20461;-72
2023/06/04 06:17:28;;;;;;;5.77;3.20;;;16.30;59.30;;;;;;5012018;28;20538;-71
2023/06/04 06:19:55;;;;;;;4.50;3.07;;;16.40;58.80;;;;;;5013743;28;20988;-72
2023/06/04 06:22:20;;;;;;;6.37;3.83;;;16.60;58.70;;;;;;5008367;28;20432;-72
2023/06/04 06:24:48;;;;;;;5.10;2.90;;;16.70;58.20;;;;;;5023237;28;20506;-73
2023/06/04 06:27:15;;;;;;;5.60;3.47;;;16.60;58.20;;;;;;5018260;28;20682;-72
2023/06/04 06:29:41;;;;;;;5.70;3.00;;;16.70;57.40;;;;;;5011641;28;20493;-73
2023/06/04 06:32:07;;;;;;;5.10;3.50;;;16.70;57.40;;;;;;5016523;28;20409;-74
2023/06/04 06:34:33;;;;;;;4.97;3.17;;;16.70;56.80;;;;;;5013737;28;20451;-72
2023/06/04 06:36:58;;;;;;;4.60;2.90;;;16.70;57.00;;;;;;5013445;28;20545;-74
2023/06/04 06:39:24;;;;;;;5.83;2.97;;;16.80;57.00;;;;;;5010682;28;20209;-75
2023/06/04 06:41:49;;;;;;;6.03;3.47;;;17.00;56.40;;;;;;5002292;28;20265;-76
2023/06/04 06:44:15;;;;;;;6.80;3.30;;;17.10;56.60;;;;;;5009630;28;20225;-73
2023/06/04 06:46:40;;;;;;;5.80;3.33;;;17.10;56.20;;;;;;5010477;28;20866;-73
2023/06/04 06:49:06;;;;;;;3.00;2.50;;;16.90;57.00;;;;;;5011546;28;20504;-72
2023/06/04 06:51:31;;;;;;;5.40;3.00;;;17.10;56.80;;;;;;5010332;28;20201;-73
2023/06/04 06:53:57;;;;;;;6.63;2.50;;;17.30;56.20;;;;;;5011332;28;20240;-74
2023/06/04 06:56:23;;;;;;;9.07;3.20;;;17.50;56.00;;;;;;5013607;28;20186;-72
2023/06/04 06:58:48;;;;;;;4.67;2.50;;;17.60;55.30;;;;;;5013664;28;20280;-74
2023/06/04 07:01:14;;;;;;;5.17;3.33;;;17.60;55.60;;;;;;5008416;28;20214;-74
2023/06/04 07:03:39;;;;;;;5.03;2.70;;;17.50;55.00;;;;;;5012274;28;20892;-76
2023/06/04 07:06:06;;;;;;;5.73;3.10;;;17.60;55.60;;;;;;5013747;28;20212;-75
2023/06/04 07:08:32;;;;;;;5.63;3.20;;;17.80;55.00;;;;;;5002093;28;20178;-75
2023/06/04 07:11:03;;;;;;;8.27;3.03;;;17.80;55.30;;;;;;5006825;28;20462;-75
2023/06/04 07:13:28;;;;;;;4.33;3.37;;;18.00;54.80;;;;;;5010747;28;20424;-74
2023/06/04 07:15:54;;;;;;;14.30;6.80;;;18.10;54.50;;;;;;5012963;28;20424;-74
2023/06/04 07:18:20;;;;;;;13.43;8.23;;;18.00;55.30;;;;;;5010917;28;20185;-74
2023/06/04 07:20:45;;;;;;;7.23;4.73;;;18.00;55.40;;;;;;5012383;28;20279;-76
2023/06/04 07:23:11;;;;;;;7.07;3.60;;;18.10;54.80;;;;;;5013224;28;20253;-74
2023/06/04 07:25:37;;;;;;;8.43;3.30;;;18.20;55.00;;;;;;5012606;28;20194;-76
2023/06/04 07:28:03;;;;;;;6.73;4.27;;;18.40;54.60;;;;;;5019780;28;20186;-75
2023/06/04 07:30:31;;;;;;;6.50;3.27;;;18.60;54.40;;;;;;5017487;28;20266;-75
2023/06/04 07:32:57;;;;;;;5.33;3.43;;;18.70;53.80;;;;;;5008022;28;20416;-76
2023/06/04 07:35:23;;;;;;;5.80;3.33;;;18.70;53.70;;;;;;5011157;28;20453;-74
2023/06/04 07:37:49;;;;;;;5.60;3.33;;;18.70;54.10;;;;;;5003836;28;20233;-75
2023/06/04 07:40:16;;;;;;;5.13;3.03;;;18.70;54.50;;;;;;5007793;28;20538;-74
2023/06/04 07:42:42;;;;;;;10.90;3.27;;;18.80;54.40;;;;;;5012420;28;20875;-74
2023/06/04 07:45:09;;;;;;;6.57;3.30;;;18.90;53.70;;;;;;5006993;28;20471;-76
2023/06/04 07:47:36;;;;;;;6.57;3.40;;;18.90;53.00;;;;;;5011239;28;20435;-75
2023/06/04 07:50:03;;;;;;;5.93;3.93;;;18.70;53.80;;;;;;5001487;28;21288;-78
2023/06/04 07:52:28;;;;;;;6.40;3.33;;;18.60;54.40;;;;;;5010839;28;20431;-73
2023/06/04 07:54:54;;;;;;;9.50;4.30;;;18.70;54.60;;;;;;5011157;28;20445;-74
2023/06/04 07:57:19;;;;;;;27.37;13.70;;;18.80;54.00;;;;;;5011811;28;20348;-75
2023/06/04 07:59:45;;;;;;;7.00;3.77;;;18.80;54.80;;;;;;5007652;28;20213;-75
2023/06/04 08:02:10;;;;;;;8.73;4.13;;;18.80;54.20;;;;;;5014725;28;20272;-74
2023/06/04 08:04:36;;;;;;;7.90;3.73;;;19.10;54.10;;;;;;5014187;28;20207;-76
2023/06/04 08:07:02;;;;;;;6.87;4.37;;;19.00;54.10;;;;;;5013485;28;20189;-76
2023/06/04 08:09:28;;;;;;;7.10;3.57;;;19.10;54.00;;;;;;5012154;28;20987;-74
2023/06/04 08:11:53;;;;;;;5.90;3.40;;;19.10;54.20;;;;;;5012194;28;20422;-74
2023/06/04 08:14:21;;;;;;;11.47;3.83;;;19.20;54.20;;;;;;5011274;28;20190;-75
2023/06/04 08:16:47;;;;;;;6.87;3.67;;;19.30;53.70;;;;;;5011609;28;20190;-75
2023/06/04 08:19:13;;;;;;;8.30;3.50;;;19.30;53.40;;;;;;5009653;28;20429;-76
2023/06/04 08:21:40;;;;;;;6.03;3.50;;;19.20;54.10;;;;;;5011637;28;20186;-75
2023/06/04 08:24:08;;;;;;;5.03;3.00;;;19.30;54.40;;;;;;5011824;28;20479;-74
2023/06/04 08:26:34;;;;;;;6.20;3.97;;;19.50;54.10;;;;;;5011216;28;20417;-75
2023/06/04 08:29:03;;;;;;;6.57;3.77;;;19.60;53.70;;;;;;5010375;28;20447;-74
2023/06/04 08:31:29;;;;;;;7.00;3.80;;;19.60;53.40;;;;;;5008984;28;20293;-75
2023/06/04 08:33:55;;;;;;;4.63;3.47;;;19.70;53.70;;;;;;5012336;28;20554;-75
2023/06/04 08:36:20;;;;;;;9.50;3.80;;;19.80;52.90;;;;;;5010307;28;20190;-76
2023/06/04 08:38:50;;;;;;;7.80;4.10;;;20.00;52.80;;;;;;5006479;28;20256;-76
2023/06/04 08:41:23;;;;;;;7.77;4.17;;;20.20;52.20;;;;;;5015498;28;20191;-76
2023/06/04 08:43:49;;;;;;;6.83;4.47;;;20.20;52.00;;;;;;5012831;28;20903;-75
2023/06/04 08:46:18;;;;;;;9.50;5.67;;;20.30;52.20;;;;;;5010946;28;20789;-75
2023/06/04 08:48:44;;;;;;;6.80;4.73;;;20.30;51.20;;;;;;5007146;28;20794;-75
2023/06/04 08:51:11;;;;;;;9.20;4.60;;;20.40;51.40;;;;;;5001850;28;20466;-75
2023/06/04 08:53:37;;;;;;;7.43;5.43;;;20.40;51.60;;;;;;5010162;28;20425;-75
2023/06/04 08:56:03;;;;;;;7.80;4.33;;;20.50;51.80;;;;;;5010504;28;20936;-75
2023/06/04 08:58:33;;;;;;;8.83;4.13;;;20.70;52.10;;;;;;5009316;28;20521;-75
2023/06/04 09:01:00;;;;;;;6.97;3.67;;;20.70;51.40;;;;;;5006684;28;20548;-75
2023/06/04 09:03:26;;;;;;;8.77;4.13;;;20.50;52.50;;;;;;5007400;28;20475;-75
2023/06/04 09:05:52;;;;;;;8.07;4.47;;;20.70;52.50;;;;;;5010505;28;20945;-75
2023/06/04 09:08:19;;;;;;;7.00;3.70;;;20.70;52.20;;;;;;5010798;28;20184;-74
2023/06/04 09:10:46;;;;;;;7.60;4.13;;;20.70;52.50;;;;;;5008181;28;20978;-75
2023/06/04 09:13:15;;;;;;;9.43;4.30;;;20.90;51.30;;;;;;5013025;28;20420;-74
2023/06/04 09:15:40;;;;;;;12.10;4.20;;;21.10;51.00;;;;;;5013229;28;20930;-74
2023/06/04 09:18:06;;;;;;;6.83;3.43;;;21.20;51.30;;;;;;5011542;28;20427;-75
2023/06/04 09:20:32;;;;;;;5.10;3.73;;;21.20;51.00;;;;;;5008977;28;20216;-72
2023/06/04 09:22:58;;;;;;;6.10;3.97;;;21.40;50.60;;;;;;5005516;28;20736;-71
2023/06/04 09:25:26;;;;;;;7.70;3.90;;;21.50;49.80;;;;;;5007833;28;20460;-72
2023/06/04 09:27:52;;;;;;;5.37;3.60;;;21.40;50.10;;;;;;5008229;28;20443;-71
2023/06/04 09:30:18;;;;;;;6.63;3.07;;;21.50;49.90;;;;;;5006310;28;20463;-72
2023/06/04 09:32:44;;;;;;;8.90;4.00;;;21.60;49.40;;;;;;5008541;28;20495;-73
2023/06/04 09:35:17;;;;;;;6.27;3.47;;;21.70;49.40;;;;;;5008563;28;20208;-73
2023/06/04 09:37:53;;;;;;;9.03;3.70;;;21.80;48.70;;;;;;5006916;28;20200;-72
2023/06/04 09:40:19;;;;;;;8.03;4.10;;;21.90;48.60;;;;;;5000158;28;20472;-72
2023/06/04 09:42:46;;;;;;;5.27;3.80;;;21.90;47.10;;;;;;5003453;28;20428;-72
2023/06/04 09:45:12;;;;;;;6.83;4.20;;;21.80;47.80;;;;;;5006419;28;20986;-74
2023/06/04 09:47:44;;;;;;;6.10;3.93;;;21.90;47.30;;;;;;5010210;28;20420;-73
2023/06/04 09:50:13;;;;;;;5.67;3.77;;;22.00;47.90;;;;;;5004709;28;21225;-74
2023/06/04 09:52:39;;;;;;;17.60;4.97;;;22.20;47.00;;;;;;5008706;28;20474;-72
2023/06/04 09:55:18;;;;;;;9.93;4.20;;;22.30;47.10;;;;;;5008353;28;20519;-73
2023/06/04 09:57:49;;;;;;;6.57;4.50;;;22.40;46.60;;;;;;5006253;28;20955;-72
2023/06/04 10:00:20;;;;;;;7.40;4.70;;;22.50;44.90;;;;;;5007222;28;20912;-75
2023/06/04 10:02:46;;;;;;;6.87;4.20;;;22.30;45.00;;;;;;5008035;28;20421;-73
2023/06/04 10:05:14;;;;;;;9.37;4.57;;;22.50;45.70;;;;;;5004627;28;20470;-73
2023/06/04 10:07:42;;;;;;;7.20;4.10;;;22.80;45.10;;;;;;5011190;28;20426;-73
2023/06/04 10:10:14;;;;;;;6.17;3.80;;;23.20;42.80;;;;;;5002456;28;20463;-74
2023/06/04 10:12:41;;;;;;;6.40;4.03;;;23.60;42.20;;;;;;5010892;28;20425;-73
2023/06/04 10:15:13;;;;;;;6.80;4.50;;;23.90;42.00;;;;;;5009063;28;20428;-72
2023/06/04 10:17:39;;;;;;;6.83;4.20;;;24.10;41.00;;;;;;5008924;28;20424;-73
2023/06/04 10:20:08;;;;;;;7.40;4.53;;;24.20;41.60;;;;;;5009703;28;20461;-73
2023/06/04 10:22:34;;;;;;;8.23;4.40;;;24.40;40.40;;;;;;5012929;28;20781;-73
2023/06/04 10:25:00;;;;;;;9.37;4.80;;;24.80;39.60;;;;;;5013675;28;20822;-73
2023/06/04 10:27:26;;;;;;;8.13;4.87;;;25.00;39.20;;;;;;5012511;28;21249;-72
2023/06/04 10:29:52;;;;;;;8.07;4.87;;;24.60;39.40;;;;;;5010436;28;20464;-73
2023/06/04 10:32:19;;;;;;;7.53;4.20;;;24.40;38.80;;;;;;5014315;28;20215;-73
2023/06/04 10:34:46;;;;;;;11.53;4.00;;;24.20;39.80;;;;;;5013767;28;20418;-72
2023/06/04 10:37:22;;;;;;;7.10;4.27;;;24.80;40.00;;;;;;5009226;28;20451;-73
2023/06/04 10:39:56;;;;;;;8.37;4.80;;;25.20;38.60;;;;;;5004660;28;20534;-72
2023/06/04 10:42:23;;;;;;;11.20;4.50;;;25.50;38.00;;;;;;5007740;28;20424;-71
2023/06/04 10:44:50;;;;;;;7.33;4.40;;;25.10;39.10;;;;;;5010460;28;20468;-73
2023/06/04 10:47:20;;;;;;;9.50;4.40;;;25.40;39.00;;;;;;5009362;28;20462;-73
2023/06/04 10:49:46;;;;;;;5.63;3.93;;;25.70;38.30;;;;;;5005307;28;20481;-72
2023/06/04 10:52:12;;;;;;;7.53;3.97;;;26.00;38.00;;;;;;5010911;28;20444;-73
2023/06/04 10:54:37;;;;;;;10.67;4.63;;;26.10;37.20;;;;;;5010851;28;20668;-73
2023/06/04 10:57:14;;;;;;;6.33;4.17;;;26.10;37.40;;;;;;5011692;28;20622;-72
2023/06/04 10:59:40;;;;;;;5.10;3.80;;;26.20;37.20;;;;;;5010365;28;20663;-72
2023/06/04 11:02:07;;;;;;;7.80;4.80;;;26.40;37.10;;;;;;5013478;28;20448;-73
2023/06/04 11:04:32;;;;;;;6.17;4.03;;;26.60;36.80;;;;;;5012154;28;20840;-73
2023/06/04 11:07:03;;;;;;;7.63;4.20;;;26.90;36.80;;;;;;5010539;28;20429;-72
2023/06/04 11:09:29;;;;;;;7.57;4.43;;;26.30;36.80;;;;;;5010027;28;20254;-73
2023/06/04 11:11:59;;;;;;;7.17;4.40;;;25.80;38.00;;;;;;5013414;28;20435;-73
2023/06/04 11:14:25;;;;;;;5.57;3.93;;;26.00;37.20;;;;;;5013032;28;20193;-72
2023/06/04 11:16:53;;;;;;;10.13;4.60;;;25.90;38.20;;;;;;5011257;28;20863;-72
2023/06/04 11:19:20;;;;;;;7.13;4.33;;;25.60;37.10;;;;;;5011550;28;20434;-73
2023/06/04 11:21:45;;;;;;;8.60;4.50;;;24.80;39.10;;;;;;5004242;28;20443;-73
2023/06/04 11:24:14;;;;;;;11.13;4.40;;;24.50;39.00;;;;;;5009294;28;20834;-72
2023/06/04 11:26:39;;;;;;;7.77;5.13;;;24.50;40.20;;;;;;5009641;28;20643;-73
2023/06/04 11:29:08;;;;;;;7.10;4.30;;;24.70;38.70;;;;;;5016815;28;20456;-73
2023/06/04 11:31:43;;;;;;;7.43;5.00;;;23.70;40.70;;;;;;5008421;28;20305;-74
2023/06/04 11:34:09;;;;;;;7.57;4.87;;;23.40;41.40;;;;;;5005406;28;20421;-72
2023/06/04 11:36:36;;;;;;;8.20;4.70;;;23.90;41.40;;;;;;5004646;28;20925;-74
2023/06/04 11:39:03;;;;;;;7.40;4.53;;;23.90;40.80;;;;;;5012557;28;20728;-73
2023/06/04 11:41:33;;;;;;;7.83;5.30;;;24.30;39.90;;;;;;5009505;28;20473;-73
2023/06/04 11:44:03;;;;;;;9.67;5.80;;;24.00;39.60;;;;;;5017922;28;20483;-73
2023/06/04 11:46:29;;;;;;;9.50;5.00;;;23.90;40.80;;;;;;5018233;28;20425;-73
2023/06/04 11:48:55;;;;;;;8.50;5.43;;;24.50;39.40;;;;;;5021954;28;20425;-73
2023/06/04 11:51:21;;;;;;;9.57;5.47;;;24.90;38.20;;;;;;5020218;28;20489;-73
2023/06/04 11:53:47;;;;;;;10.80;5.20;;;25.30;37.90;;;;;;5019497;28;20218;-73
2023/06/04 11:56:13;;;;;;;10.60;6.40;;;24.60;38.70;;;;;;5019322;28;20185;-73
2023/06/04 11:58:40;;;;;;;8.47;5.87;;;24.50;39.00;;;;;;5014771;28;20963;-72
2023/06/04 12:01:07;;;;;;;8.23;4.70;;;25.00;37.90;;;;;;5007637;28;20706;-73
2023/06/04 12:03:41;;;;;;;8.70;4.93;;;25.20;36.80;;;;;;5013003;28;20467;-72
2023/06/04 12:06:15;;;;;;;6.00;4.13;;;24.70;37.90;;;;;;5012604;28;20480;-72
2023/06/04 12:09:07;;;;;;;9.83;4.90;;;24.60;38.70;;;;;;5009008;28;20476;-72
2023/06/04 12:11:34;;;;;;;7.43;4.07;;;25.40;37.10;;;;;;5005175;28;20534;-73
2023/06/04 12:14:17;;;;;;;7.30;4.77;;;25.60;36.70;;;;;;5009397;28;20431;-72
2023/06/04 12:16:43;;;;;;;7.60;4.90;;;25.00;37.50;;;;;;5010282;28;20478;-72
2023/06/04 12:19:11;;;;;;;10.90;4.60;;;25.10;37.20;;;;;;5009689;28;20424;-73
2023/06/04 12:21:37;;;;;;;10.03;4.63;;;25.00;37.60;;;;;;5007372;28;20199;-72
2023/06/04 12:24:07;;;;;;;10.43;5.80;;;24.60;37.80;;;;;;5011332;28;20460;-73
2023/06/04 12:26:37;;;;;;;9.03;4.97;;;24.40;38.60;;;;;;5010359;28;20480;-74
2023/06/04 12:29:10;;;;;;;9.43;5.27;;;24.50;37.90;;;;;;5011782;28;20433;-72
2023/06/04 12:31:35;;;;;;;8.30;5.03;;;24.50;38.30;;;;;;5004647;28;20571;-73
2023/06/04 12:34:01;;;;;;;7.27;4.70;;;25.20;37.50;;;;;;5006064;28;20547;-74
2023/06/04 12:36:28;;;;;;;9.13;5.50;;;25.10;37.50;;;;;;5004580;28;20272;-72
2023/06/04 12:38:58;;;;;;;9.80;5.57;;;25.80;36.00;;;;;;5009999;28;20194;-72
2023/06/04 12:41:25;;;;;;;6.93;4.87;;;26.20;35.30;;;;;;5007002;28;20458;-72
2023/06/04 12:43:51;;;;;;;7.10;5.30;;;26.40;34.40;;;;;;5011524;28;20471;-72